Time;durP1;ratioP1;P1;durP2;ratioP2;P2;SDS_P1;SDS_P2;PMS_P1;PMS_P2;Temp;Humidity;BMP_temperature;BMP_pressure;BME280_temperature;BME280_humidity;BME280_pressure;Samples;Min_cycle;Max_cycle;Signal;HPM_P1;HPM_P2
2022/04/27 00:01:24;;;;;;;10.98;8.88;;;6.90;94.00;;;;;;5037647;27;92412;-70
2022/04/27 00:03:52;;;;;;;14.30;9.45;;;6.90;94.10;;;;;;5038076;27;93247;-70
2022/04/27 00:06:19;;;;;;;10.65;9.55;;;6.80;94.10;;;;;;5038040;28;91854;-70
2022/04/27 00:08:46;;;;;;;13.85;9.95;;;6.80;94.00;;;;;;5038179;27;92410;-70
2022/04/27 00:11:13;;;;;;;14.35;9.70;;;6.70;94.00;;;;;;5038122;27;92478;-70
2022/04/27 00:13:40;;;;;;;13.90;9.27;;;6.70;94.20;;;;;;5036733;28;95704;-70
2022/04/27 00:16:07;;;;;;;12.85;9.60;;;6.70;94.20;;;;;;5036426;28;98027;-70
2022/04/27 00:18:34;;;;;;;11.50;8.85;;;6.70;94.20;;;;;;5037761;27;92456;-70
2022/04/27 00:21:01;;;;;;;13.52;9.98;;;6.70;94.20;;;;;;5036369;28;92610;-70
2022/04/27 00:23:30;;;;;;;15.15;9.80;;;6.60;94.20;;;;;;5035888;28;92577;-70
2022/04/27 00:25:57;;;;;;;12.00;9.55;;;6.60;94.20;;;;;;5037683;27;93066;-70
2022/04/27 00:28:24;;;;;;;13.63;9.77;;;6.60;94.30;;;;;;5036309;28;92462;-70
2022/04/27 00:30:57;;;;;;;12.98;8.68;;;6.50;94.30;;;;;;5036670;28;91784;-70
2022/04/27 00:33:38;;;;;;;9.75;8.68;;;6.50;94.30;;;;;;5034793;28;95915;-70
2022/04/27 00:36:05;;;;;;;13.07;9.43;;;6.40;94.50;;;;;;5036296;28;95606;-70
2022/04/27 00:38:32;;;;;;;9.93;8.35;;;6.40;94.60;;;;;;5018288;28;94838;-70
2022/04/27 00:40:59;;;;;;;12.93;9.55;;;6.40;94.60;;;;;;5019741;28;92618;-70
2022/04/27 00:43:36;;;;;;;13.73;8.98;;;6.40;94.40;;;;;;5035826;28;95663;-70
2022/04/27 00:46:04;;;;;;;10.18;8.73;;;6.40;94.50;;;;;;5035873;28;95610;-70
2022/04/27 00:48:31;;;;;;;12.10;10.00;;;6.30;94.60;;;;;;5037370;28;92421;-70
2022/04/27 00:51:02;;;;;;;11.63;9.48;;;6.20;94.60;;;;;;5034288;28;92496;-70
2022/04/27 00:53:29;;;;;;;16.98;10.40;;;6.20;94.60;;;;;;5019052;28;95459;-70
2022/04/27 00:55:58;;;;;;;15.13;9.85;;;6.20;94.70;;;;;;5035744;28;95842;-70
2022/04/27 00:58:27;;;;;;;12.48;9.98;;;6.10;94.70;;;;;;5035619;28;92556;-70
2022/04/27 01:01:15;;;;;;;15.27;10.27;;;6.10;94.70;;;;;;5035535;28;92488;-70
2022/04/27 01:03:42;;;;;;;14.43;9.80;;;6.10;94.80;;;;;;5033984;27;95585;-70
2022/04/27 01:06:09;;;;;;;16.23;10.20;;;6.00;94.80;;;;;;5019094;28;97210;-70
2022/04/27 01:08:37;;;;;;;15.50;10.15;;;6.00;94.90;;;;;;5018413;28;92610;-70
2022/04/27 01:11:06;;;;;;;14.38;10.57;;;6.00;94.80;;;;;;5035132;28;92517;-70
2022/04/27 01:13:39;;;;;;;18.15;10.15;;;6.00;94.80;;;;;;5034716;28;95391;-70
2022/04/27 01:16:07;;;;;;;16.52;10.43;;;6.00;95.00;;;;;;5018473;28;95513;-70
2022/04/27 01:18:34;;;;;;;15.45;10.23;;;5.90;95.30;;;;;;5018224;28;92705;-70
2022/04/27 01:21:04;;;;;;;16.45;10.85;;;5.90;95.60;;;;;;5036778;27;92305;-70
2022/04/27 01:23:39;;;;;;;15.43;10.48;;;5.90;95.60;;;;;;5034846;28;95805;-70
2022/04/27 01:26:07;;;;;;;14.23;11.35;;;5.90;95.70;;;;;;5034696;28;95560;-70
2022/04/27 01:28:37;;;;;;;15.65;11.23;;;5.90;95.70;;;;;;5033417;28;94997;-70
2022/04/27 01:31:11;;;;;;;13.07;11.07;;;5.90;95.80;;;;;;5035112;28;92509;-70
2022/04/27 01:33:39;;;;;;;14.02;10.60;;;5.90;95.70;;;;;;5034671;28;95109;-70
2022/04/27 01:36:08;;;;;;;14.73;10.02;;;5.90;95.60;;;;;;5036164;28;93101;-70
2022/04/27 01:38:35;;;;;;;16.23;10.18;;;5.90;95.60;;;;;;5068577;27;92531;-70
2022/04/27 01:41:05;;;;;;;14.23;10.25;;;5.80;95.60;;;;;;5017757;28;92585;-70
2022/04/27 01:43:34;;;;;;;14.20;10.60;;;5.80;95.50;;;;;;5035767;27;93184;-70
2022/04/27 01:46:01;;;;;;;15.43;10.40;;;5.80;95.60;;;;;;5034796;28;95524;-70
2022/04/27 01:48:29;;;;;;;17.75;10.77;;;5.80;95.60;;;;;;5035835;27;92919;-70
2022/04/27 01:50:56;;;;;;;15.75;10.65;;;5.70;95.50;;;;;;5036264;27;92488;-70
2022/04/27 01:56:10;;;;;;;16.05;10.20;;;5.70;95.60;;;;;;5034256;28;97862;-70
2022/04/27 01:58:42;;;;;;;13.73;10.18;;;5.70;95.70;;;;;;5034401;28;92462;-70
2022/04/27 02:01:11;;;;;;;13.90;10.70;;;5.60;95.70;;;;;;5034419;28;92492;-70
2022/04/27 02:03:40;;;;;;;16.10;10.65;;;5.70;95.80;;;;;;5033830;28;96205;-70
2022/04/27 02:06:16;;;;;;;16.13;11.02;;;5.70;95.90;;;;;;5068141;27;94887;-70
2022/04/27 02:08:43;;;;;;;18.02;10.40;;;5.80;96.10;;;;;;5051327;27;92501;-70
2022/04/27 02:11:11;;;;;;;15.95;9.80;;;5.80;96.20;;;;;;5018121;28;92044;-70
2022/04/27 02:13:46;;;;;;;17.15;11.15;;;5.80;95.90;;;;;;5034521;28;94343;-70
2022/04/27 02:16:13;;;;;;;13.82;10.23;;;5.90;95.80;;;;;;5034178;28;95473;-70
2022/04/27 02:18:41;;;;;;;12.57;9.70;;;5.90;95.60;;;;;;5032235;28;94905;-70
2022/04/27 02:21:08;;;;;;;11.18;9.77;;;6.00;95.50;;;;;;5034751;28;92565;-70
2022/04/27 02:23:35;;;;;;;13.30;9.55;;;6.10;95.40;;;;;;5034361;28;95790;-70
2022/04/27 02:26:02;;;;;;;16.25;10.45;;;6.10;95.30;;;;;;5034425;28;95662;-70
2022/04/27 02:28:29;;;;;;;17.58;10.50;;;6.20;95.20;;;;;;5034153;28;94057;-70
2022/04/27 02:30:57;;;;;;;13.40;10.25;;;6.20;95.20;;;;;;5017095;28;92471;-70
2022/04/27 02:33:24;;;;;;;15.55;9.98;;;6.20;95.10;;;;;;5033764;28;95711;-70
2022/04/27 02:35:51;;;;;;;13.88;9.50;;;6.30;95.10;;;;;;5017147;28;95552;-70
2022/04/27 02:38:18;;;;;;;10.75;9.65;;;6.30;95.10;;;;;;5034651;27;92512;-70
2022/04/27 02:40:48;;;;;;;15.32;9.18;;;6.30;95.20;;;;;;5018000;28;92467;-70
2022/04/27 02:43:16;;;;;;;13.98;10.57;;;6.40;95.10;;;;;;5033132;28;98041;-70
2022/04/27 02:45:44;;;;;;;14.77;10.40;;;6.40;95.10;;;;;;5033230;28;97772;-70
2022/04/27 02:48:11;;;;;;;11.80;9.27;;;6.40;95.20;;;;;;5033922;28;92812;-70
2022/04/27 02:53:24;;;;;;;11.93;9.70;;;6.50;95.00;;;;;;5034228;28;93248;-70
2022/04/27 02:55:52;;;;;;;14.07;9.75;;;6.50;95.00;;;;;;5033852;27;95364;-70
2022/04/27 02:58:19;;;;;;;13.02;9.40;;;6.60;95.00;;;;;;5035717;28;92819;-70
2022/04/27 03:00:47;;;;;;;11.02;9.00;;;6.60;95.00;;;;;;5017859;28;91705;-70
2022/04/27 03:03:16;;;;;;;10.85;8.43;;;6.60;95.00;;;;;;5067852;27;95112;-70
2022/04/27 03:05:44;;;;;;;11.65;8.38;;;6.70;95.00;;;;;;5033259;28;95223;-70
2022/04/27 03:08:11;;;;;;;12.18;8.73;;;6.70;95.00;;;;;;5015967;28;94932;-70
2022/04/27 03:10:48;;;;;;;13.07;9.05;;;6.70;95.00;;;;;;5033576;28;92907;-70
2022/04/27 03:13:17;;;;;;;10.38;8.50;;;6.70;95.00;;;;;;5067989;27;95163;-70
2022/04/27 03:15:47;;;;;;;10.85;8.02;;;6.70;95.10;;;;;;5020596;28;94291;-70
2022/04/27 03:18:17;;;;;;;11.15;8.45;;;6.80;95.00;;;;;;5037938;28;92474;-70
2022/04/27 03:20:44;;;;;;;14.38;8.77;;;6.80;95.00;;;;;;5020452;28;92518;-70
2022/04/27 03:23:12;;;;;;;14.95;9.07;;;6.80;95.00;;;;;;5037295;28;95748;-70
2022/04/27 03:25:39;;;;;;;11.45;8.50;;;6.90;95.00;;;;;;5037550;28;95466;-70
2022/04/27 03:28:07;;;;;;;13.40;9.70;;;6.90;94.90;;;;;;5020681;28;92555;-70
2022/04/27 03:30:35;;;;;;;13.75;8.43;;;6.90;95.00;;;;;;5037591;28;92592;-70
2022/04/27 03:33:07;;;;;;;15.07;8.65;;;6.90;95.00;;;;;;5020025;28;96693;-70
2022/04/27 03:35:36;;;;;;;12.32;8.73;;;7.00;95.10;;;;;;5036978;28;97600;-70
2022/04/27 03:38:03;;;;;;;10.25;8.40;;;7.00;95.00;;;;;;5037048;28;92437;-70
2022/04/27 03:40:31;;;;;;;11.93;8.52;;;7.00;94.90;;;;;;5037347;28;92517;-70
2022/04/27 03:42:58;;;;;;;14.70;8.80;;;7.00;94.90;;;;;;5036807;28;95488;-70
2022/04/27 03:45:26;;;;;;;13.55;9.73;;;7.10;94.90;;;;;;5037135;27;95095;-70
2022/04/27 03:47:56;;;;;;;14.32;8.63;;;7.10;95.00;;;;;;5020786;28;92946;-70
2022/04/27 03:50:25;;;;;;;13.68;9.30;;;7.10;94.90;;;;;;5037469;28;91759;-70
2022/04/27 03:52:53;;;;;;;11.32;8.05;;;7.20;94.90;;;;;;5036684;28;95982;-70
2022/04/27 03:55:24;;;;;;;13.10;9.18;;;7.20;94.90;;;;;;5036880;28;95223;-70
2022/04/27 03:57:52;;;;;;;11.43;9.05;;;7.20;94.90;;;;;;5035705;28;94762;-70
2022/04/27 04:00:19;;;;;;;11.07;8.05;;;7.20;94.90;;;;;;5020456;28;92517;-70
2022/04/27 04:02:59;;;;;;;11.73;9.27;;;7.20;94.90;;;;;;5036583;28;95153;-70
2022/04/27 04:05:27;;;;;;;14.00;9.38;;;7.30;95.00;;;;;;5053850;27;94446;-70
2022/04/27 04:07:55;;;;;;;12.73;8.77;;;7.30;94.90;;;;;;5036750;28;92415;-70
2022/04/27 04:10:23;;;;;;;12.35;8.80;;;7.30;95.00;;;;;;5036869;27;92514;-70
2022/04/27 04:12:50;;;;;;;11.07;8.57;;;7.40;95.00;;;;;;5036449;28;95322;-70
2022/04/27 04:15:47;;;;;;;10.98;9.20;;;7.40;94.90;;;;;;5023893;27;92862;-70
2022/04/27 04:18:32;;;;;;;11.65;9.40;;;7.40;94.90;;;;;;5022153;28;92460;-70
2022/04/27 04:21:22;;;;;;;12.52;8.80;;;7.40;94.90;;;;;;5037634;27;92424;-70
2022/04/27 04:23:57;;;;;;;10.15;8.75;;;7.40;94.90;;;;;;5035068;28;97811;-70
2022/04/27 04:29:11;;;;;;;15.18;8.95;;;7.50;94.90;;;;;;5036593;28;92365;-70
2022/04/27 04:31:38;;;;;;;10.18;9.10;;;7.60;94.90;;;;;;5036475;28;92603;-70
2022/04/27 04:34:37;;;;;;;12.65;8.65;;;7.70;94.90;;;;;;5023934;27;94084;-70
2022/04/27 04:37:06;;;;;;;12.85;8.75;;;7.70;94.80;;;;;;5035907;27;93914;-70
2022/04/27 04:39:33;;;;;;;13.43;8.27;;;7.80;94.80;;;;;;5036803;27;92417;-70
2022/04/27 04:42:00;;;;;;;11.98;8.90;;;7.80;94.80;;;;;;5019838;28;91770;-70
2022/04/27 04:44:27;;;;;;;11.02;8.05;;;7.80;94.70;;;;;;5036003;28;95272;-70
2022/04/27 04:47:15;;;;;;;10.68;8.38;;;7.90;94.60;;;;;;5036096;28;95387;-70
2022/04/27 04:50:18;;;;;;;13.00;8.48;;;8.00;94.60;;;;;;4973679;28;94922;-70
2022/04/27 04:53:14;;;;;;;13.63;8.68;;;8.00;94.60;;;;;;4981510;27;92523;-70
2022/04/27 04:55:54;;;;;;;11.80;8.63;;;8.10;94.60;;;;;;5020790;28;95616;-70
2022/04/27 04:58:44;;;;;;;10.48;8.48;;;8.20;94.60;;;;;;5028188;27;92608;-70
2022/04/27 05:01:30;;;;;;;10.57;8.23;;;8.20;94.50;;;;;;5037148;27;92399;-70
2022/04/27 05:04:05;;;;;;;11.93;9.27;;;8.20;94.40;;;;;;5020087;28;92532;-70
2022/04/27 05:07:08;;;;;;;10.88;7.93;;;8.30;94.40;;;;;;5031458;28;94091;-70
2022/04/27 05:09:46;;;;;;;11.95;8.68;;;8.30;94.30;;;;;;5021025;28;95344;-70
2022/04/27 05:12:23;;;;;;;10.82;9.15;;;8.40;94.30;;;;;;5036012;28;92433;-70
2022/04/27 05:15:11;;;;;;;12.40;9.02;;;8.40;94.40;;;;;;5004620;27;92516;-70
2022/04/27 05:17:44;;;;;;;13.80;8.48;;;8.40;94.30;;;;;;5018379;28;97949;-70
2022/04/27 05:20:23;;;;;;;14.65;9.15;;;8.40;94.40;;;;;;5019894;28;97872;-70
2022/04/27 05:23:06;;;;;;;12.00;8.38;;;8.40;94.60;;;;;;5021157;28;92455;-70
2022/04/27 05:25:51;;;;;;;13.73;9.13;;;8.40;94.60;;;;;;5037024;28;92587;-70
2022/04/27 05:32:00;;;;;;;10.60;8.25;;;8.50;94.50;;;;;;4988546;27;92907;-70
2022/04/27 05:34:36;;;;;;;11.13;7.93;;;8.60;94.40;;;;;;5034293;27;92424;-70
2022/04/27 05:37:17;;;;;;;13.43;9.00;;;8.70;94.50;;;;;;5034984;28;91829;-70
2022/04/27 05:40:25;;;;;;;11.80;8.10;;;8.70;94.50;;;;;;5015908;28;93102;-70
2022/04/27 05:43:05;;;;;;;15.52;9.32;;;8.80;94.40;;;;;;5036569;27;92976;-70
2022/04/27 05:46:01;;;;;;;11.45;8.48;;;8.90;94.30;;;;;;5021079;27;95152;-70
2022/04/27 05:48:46;;;;;;;13.70;9.45;;;9.00;94.30;;;;;;5035299;28;92582;-70
2022/04/27 05:51:13;;;;;;;12.05;8.65;;;9.10;94.10;;;;;;5035040;28;92791;-70
2022/04/27 05:53:46;;;;;;;11.13;8.75;;;9.20;94.10;;;;;;5034372;27;92642;-70
2022/04/27 05:56:34;;;;;;;12.00;9.27;;;9.30;94.10;;;;;;5014263;27;92625;-70
2022/04/27 05:59:11;;;;;;;13.73;8.57;;;9.40;94.00;;;;;;5036568;27;92428;-70
2022/04/27 06:02:01;;;;;;;14.27;9.57;;;9.50;94.00;;;;;;5015099;28;93085;-70
2022/04/27 06:04:29;;;;;;;15.65;10.30;;;9.50;94.00;;;;;;5052533;27;95400;-70
2022/04/27 06:06:56;;;;;;;13.07;9.30;;;9.60;93.90;;;;;;5034490;28;92487;-70
2022/04/27 06:09:23;;;;;;;17.05;9.82;;;9.70;93.80;;;;;;5018091;28;92539;-70
2022/04/27 06:11:57;;;;;;;15.20;9.77;;;9.80;93.70;;;;;;5014099;28;97935;-70
2022/04/27 06:14:41;;;;;;;11.20;9.18;;;9.80;93.70;;;;;;5014033;28;95062;-70
2022/04/27 06:17:25;;;;;;;13.00;9.25;;;9.90;93.70;;;;;;5014921;28;92467;-70
2022/04/27 06:19:52;;;;;;;11.52;8.90;;;10.00;93.60;;;;;;5015607;28;92605;-70
2022/04/27 06:22:20;;;;;;;12.15;9.15;;;10.10;93.50;;;;;;5014144;28;95206;-70
2022/04/27 06:24:48;;;;;;;11.57;9.80;;;10.20;93.40;;;;;;5014485;28;96129;-70
2022/04/27 06:27:35;;;;;;;13.00;8.52;;;10.20;93.30;;;;;;5028602;27;92390;-70
2022/04/27 06:30:03;;;;;;;12.90;9.48;;;10.30;93.30;;;;;;5014777;28;91784;-70
2022/04/27 06:32:33;;;;;;;12.75;9.00;;;10.40;93.10;;;;;;5014985;28;95559;-70
2022/04/27 06:35:05;;;;;;;13.68;9.50;;;10.50;93.10;;;;;;5014096;28;95225;-70
2022/04/27 06:37:34;;;;;;;12.02;8.43;;;10.60;93.00;;;;;;5046919;27;94850;-70
2022/04/27 06:40:02;;;;;;;10.60;8.95;;;10.70;92.90;;;;;;4998149;28;92534;-70
2022/04/27 06:42:30;;;;;;;12.80;8.95;;;10.70;92.80;;;;;;5030957;28;95706;-70
2022/04/27 06:45:20;;;;;;;10.20;8.68;;;10.80;92.70;;;;;;5011202;28;93776;-70
2022/04/27 06:48:06;;;;;;;13.38;9.23;;;10.80;92.90;;;;;;5013013;28;92580;-70
2022/04/27 06:50:51;;;;;;;11.23;9.30;;;10.90;92.70;;;;;;5014847;28;92973;-70
2022/04/27 06:53:37;;;;;;;10.20;9.15;;;11.00;92.60;;;;;;5015682;28;92761;-70
2022/04/27 06:56:32;;;;;;;13.80;9.82;;;11.00;92.50;;;;;;5015048;28;93962;-70
2022/04/27 06:59:17;;;;;;;11.13;8.48;;;11.10;92.40;;;;;;5014079;28;92558;-70
2022/04/27 07:01:45;;;;;;;10.57;8.95;;;11.20;92.30;;;;;;5014028;28;92858;-70
2022/04/27 07:04:12;;;;;;;12.50;9.43;;;11.30;92.30;;;;;;5012430;28;98191;-70
2022/04/27 07:06:39;;;;;;;10.77;9.10;;;11.40;92.20;;;;;;4997264;28;97731;-70
2022/04/27 07:09:16;;;;;;;10.52;9.23;;;11.50;92.00;;;;;;5015568;28;92487;-70
2022/04/27 07:11:44;;;;;;;10.00;8.95;;;11.60;91.80;;;;;;5015507;28;92499;-70
2022/04/27 07:14:15;;;;;;;9.10;8.23;;;11.70;91.90;;;;;;5013343;28;95749;-70
2022/04/27 07:16:43;;;;;;;10.93;9.25;;;11.80;91.50;;;;;;4998229;28;92864;-70
2022/04/27 07:19:11;;;;;;;11.10;8.82;;;11.90;91.40;;;;;;5014875;28;92469;-70
2022/04/27 07:21:39;;;;;;;10.20;8.60;;;12.10;91.10;;;;;;5015687;28;91716;-70
2022/04/27 07:24:06;;;;;;;11.60;8.30;;;12.20;91.00;;;;;;5013775;28;92420;-70
2022/04/27 07:26:34;;;;;;;12.68;8.20;;;12.30;90.90;;;;;;5014777;28;93086;-71
2022/04/27 07:29:01;;;;;;;12.88;8.00;;;12.50;90.60;;;;;;5012651;28;94966;-70
2022/04/27 07:31:27;;;;;;;11.57;7.50;;;12.60;90.40;;;;;;5013478;28;92476;-70
2022/04/27 07:33:54;;;;;;;11.90;7.90;;;12.60;90.20;;;;;;5015262;28;93073;-70
2022/04/27 07:36:21;;;;;;;10.98;8.10;;;12.70;90.10;;;;;;5030229;28;93187;-70
2022/04/27 07:38:52;;;;;;;13.00;8.40;;;12.80;89.90;;;;;;5015298;28;92401;-70
2022/04/27 07:41:19;;;;;;;9.35;7.78;;;13.00;89.80;;;;;;5014719;28;92492;-70
2022/04/27 07:43:46;;;;;;;10.40;7.72;;;13.10;89.40;;;;;;5015024;28;93290;-70
2022/04/27 07:46:13;;;;;;;12.85;9.15;;;13.30;89.00;;;;;;5015086;28;93040;-70
2022/04/27 07:48:40;;;;;;;8.82;7.20;;;13.40;88.60;;;;;;5013639;28;92501;-70
2022/04/27 07:51:07;;;;;;;10.20;7.38;;;13.40;87.80;;;;;;5013513;28;92499;-70
2022/04/27 07:53:34;;;;;;;7.32;6.57;;;13.50;86.30;;;;;;5013185;28;96039;-70
2022/04/27 07:56:01;;;;;;;8.80;7.30;;;13.70;85.10;;;;;;5030018;28;95461;-70
2022/04/27 07:58:28;;;;;;;7.30;6.57;;;13.70;84.00;;;;;;5013384;28;92631;-70
2022/04/27 08:00:57;;;;;;;9.57;6.00;;;13.90;83.80;;;;;;5015398;28;92594;-70
2022/04/27 08:03:25;;;;;;;8.77;5.75;;;14.00;82.80;;;;;;5016288;28;100657;-70
2022/04/27 08:05:52;;;;;;;6.93;5.65;;;14.20;81.80;;;;;;5016496;28;95556;-70
2022/04/27 08:08:19;;;;;;;7.43;6.00;;;14.30;80.70;;;;;;5018028;28;92478;-70
2022/04/27 08:10:51;;;;;;;7.20;5.28;;;14.50;79.90;;;;;;5017108;28;92106;-70
2022/04/27 08:13:17;;;;;;;6.15;5.57;;;14.70;79.30;;;;;;5016146;28;95705;-70
2022/04/27 08:15:44;;;;;;;6.55;5.82;;;14.80;79.20;;;;;;4999879;28;95751;-71
2022/04/27 08:18:12;;;;;;;9.20;6.40;;;14.90;78.70;;;;;;5032351;28;94992;-70
2022/04/27 08:23:29;;;;;;;7.03;4.60;;;15.30;77.60;;;;;;5016091;28;95869;-71
2022/04/27 08:26:02;;;;;;;4.05;3.65;;;15.40;74.50;;;;;;5016417;28;95409;-70
2022/04/27 08:28:29;;;;;;;3.75;3.30;;;15.50;69.40;;;;;;5016158;28;92551;-71
2022/04/27 08:30:56;;;;;;;4.15;2.95;;;15.60;68.40;;;;;;5017797;28;92456;-71
2022/04/27 08:33:24;;;;;;;3.67;2.53;;;15.60;64.50;;;;;;5017490;28;93074;-71
2022/04/27 08:35:55;;;;;;;3.65;2.25;;;15.60;65.20;;;;;;5016689;28;96184;-71
2022/04/27 08:38:42;;;;;;;3.08;2.75;;;15.80;63.20;;;;;;5017627;28;92350;-71
2022/04/27 08:41:09;;;;;;;2.78;2.08;;;16.00;62.30;;;;;;5033226;28;92503;-71
2022/04/27 08:43:36;;;;;;;2.83;2.30;;;16.10;61.00;;;;;;5016150;28;95658;-71
2022/04/27 08:46:03;;;;;;;3.08;2.60;;;16.30;59.70;;;;;;4999412;28;95405;-71
2022/04/27 08:48:31;;;;;;;3.47;1.92;;;16.30;58.60;;;;;;5017227;28;92529;-71
2022/04/27 08:51:02;;;;;;;3.08;1.80;;;16.40;57.20;;;;;;5017658;28;92795;-71
2022/04/27 08:53:30;;;;;;;2.35;2.00;;;16.30;54.80;;;;;;5016277;28;96223;-70
2022/04/27 08:55:57;;;;;;;3.85;2.03;;;16.10;54.30;;;;;;5015767;28;94056;-71
2022/04/27 08:58:25;;;;;;;4.65;2.15;;;16.20;54.40;;;;;;5032414;28;92472;-70
2022/04/27 09:01:06;;;;;;;3.08;1.90;;;16.20;55.80;;;;;;5001864;28;91684;-71
2022/04/27 09:03:36;;;;;;;2.50;2.20;;;16.30;56.30;;;;;;5016701;28;98357;-71
2022/04/27 09:06:06;;;;;;;8.52;2.80;;;16.30;56.50;;;;;;5016857;28;93122;-71
2022/04/27 09:08:40;;;;;;;2.95;2.30;;;16.40;56.00;;;;;;5031139;28;94820;-71
2022/04/27 09:11:11;;;;;;;3.88;2.60;;;16.50;55.70;;;;;;5015308;28;92477;-71
2022/04/27 09:13:39;;;;;;;3.33;2.40;;;16.60;55.20;;;;;;5016351;28;93465;-71
2022/04/27 09:16:07;;;;;;;5.72;3.70;;;16.50;53.50;;;;;;5016986;28;92932;-71
2022/04/27 09:22:02;;;;;;;2.63;2.00;;;16.80;52.90;;;;;;5016923;28;92431;-71
2022/04/27 09:24:49;;;;;;;3.35;3.05;;;16.80;51.30;;;;;;5005355;28;96841;-71
2022/04/27 09:27:18;;;;;;;2.78;2.58;;;17.00;50.80;;;;;;5017440;28;92971;-71
2022/04/27 09:30:01;;;;;;;3.80;3.05;;;17.10;51.10;;;;;;5031690;28;92980;-71
2022/04/27 09:32:29;;;;;;;2.28;1.95;;;17.30;50.20;;;;;;5016835;28;92406;-71
2022/04/27 09:35:00;;;;;;;2.22;2.00;;;17.30;50.70;;;;;;5015532;28;95609;-71
2022/04/27 09:37:30;;;;;;;4.60;2.20;;;17.50;50.20;;;;;;5031712;28;95242;-71
2022/04/27 09:40:08;;;;;;;4.82;2.63;;;17.80;49.90;;;;;;5015814;28;92531;-71
2022/04/27 09:42:46;;;;;;;2.25;2.05;;;18.00;48.70;;;;;;5015324;28;92549;-71
2022/04/27 09:45:13;;;;;;;4.15;2.83;;;18.20;47.40;;;;;;5031596;28;95772;-71
2022/04/27 09:47:53;;;;;;;3.10;2.60;;;18.00;47.20;;;;;;5016095;28;92374;-71
2022/04/27 09:50:20;;;;;;;4.07;2.72;;;17.90;46.80;;;;;;4998664;28;92527;-71
2022/04/27 09:52:47;;;;;;;4.80;2.13;;;17.90;46.80;;;;;;5015125;28;92151;-71
2022/04/27 09:55:15;;;;;;;4.07;2.10;;;17.90;47.00;;;;;;4998441;28;95678;-71
2022/04/27 09:57:53;;;;;;;4.75;2.35;;;18.10;48.10;;;;;;5016176;28;92978;-71
2022/04/27 10:00:22;;;;;;;;;;;18.40;47.70;;;;;;5015920;28;94895;-71
2022/04/27 10:02:50;;;;;;;3.08;2.47;;;18.50;47.00;;;;;;5049582;27;92502;-71
2022/04/27 10:05:17;;;;;;;3.90;3.33;;;18.90;47.30;;;;;;5015906;28;93225;-71
2022/04/27 10:07:46;;;;;;;3.63;3.33;;;19.00;43.90;;;;;;5016049;28;92930;-71
2022/04/27 10:10:16;;;;;;;3.50;3.20;;;19.10;43.50;;;;;;5048670;27;92588;-71
2022/04/27 10:12:44;;;;;;;4.55;2.08;;;19.00;42.90;;;;;;5014923;28;92924;-71
2022/04/27 10:15:11;;;;;;;3.55;3.15;;;19.10;44.10;;;;;;5016021;28;93242;-71
2022/04/27 10:17:39;;;;;;;3.50;2.53;;;19.10;44.10;;;;;;5015924;28;93038;-71
2022/04/27 10:20:25;;;;;;;2.45;2.25;;;19.10;44.80;;;;;;5015641;28;92341;-71
2022/04/27 10:23:12;;;;;;;4.35;1.95;;;19.50;44.00;;;;;;5015791;28;92437;-71
2022/04/27 10:25:39;;;;;;;4.57;2.92;;;19.60;44.00;;;;;;5014150;28;96225;-71
2022/04/27 10:28:24;;;;;;;4.53;2.40;;;19.70;43.10;;;;;;5014650;28;95361;-71
2022/04/27 10:30:51;;;;;;;3.83;2.20;;;20.00;42.70;;;;;;5015940;28;92410;-71
2022/04/27 10:33:40;;;;;;;3.28;2.50;;;20.10;42.60;;;;;;5015875;28;92408;-71
2022/04/27 10:36:28;;;;;;;3.40;3.05;;;20.30;41.90;;;;;;5014767;28;93353;-71
2022/04/27 10:39:10;;;;;;;3.38;2.88;;;20.30;40.80;;;;;;5014023;28;95685;-71
2022/04/27 10:41:54;;;;;;;3.67;2.20;;;20.30;40.80;;;;;;5015733;28;92838;-71
2022/04/27 10:44:41;;;;;;;3.53;2.28;;;20.20;41.10;;;;;;5014633;28;91776;-71
2022/04/27 10:47:19;;;;;;;2.70;2.50;;;19.90;41.40;;;;;;5015353;28;93295;-71
2022/04/27 10:49:48;;;;;;;2.72;2.47;;;19.90;42.80;;;;;;5014192;28;93044;-71
2022/04/27 10:52:15;;;;;;;3.05;2.75;;;19.90;43.00;;;;;;5014470;28;94727;-71
2022/04/27 10:54:42;;;;;;;4.15;2.63;;;19.80;42.10;;;;;;5013996;28;92685;-71
2022/04/27 10:57:15;;;;;;;5.55;3.90;;;19.50;41.70;;;;;;5014063;28;93268;-71
2022/04/27 10:59:52;;;;;;;4.90;4.30;;;19.00;42.00;;;;;;5015103;28;92892;-71
2022/04/27 11:02:37;;;;;;;3.15;2.40;;;18.90;43.40;;;;;;5015791;28;92821;-71
2022/04/27 11:05:18;;;;;;;4.20;2.85;;;18.90;43.60;;;;;;5015420;28;92456;-71
2022/04/27 11:07:51;;;;;;;5.75;2.30;;;18.90;44.70;;;;;;5014960;28;93236;-71
2022/04/27 11:10:21;;;;;;;4.65;4.25;;;19.10;43.70;;;;;;5015758;28;92773;-71
2022/04/27 11:12:53;;;;;;;3.75;3.33;;;19.40;45.10;;;;;;5015364;28;92439;-71
2022/04/27 11:15:22;;;;;;;5.97;3.55;;;19.70;43.80;;;;;;4997372;28;92626;-71
2022/04/27 11:18:01;;;;;;;3.97;3.00;;;20.00;42.70;;;;;;5046210;27;98114;-71
2022/04/27 11:20:32;;;;;;;2.55;2.35;;;19.80;41.60;;;;;;5013406;28;94179;-71
2022/04/27 11:23:03;;;;;;;3.72;3.05;;;19.60;42.10;;;;;;5013805;28;92481;-71
2022/04/27 11:25:32;;;;;;;4.30;3.30;;;19.50;42.10;;;;;;5015537;28;92895;-71
2022/04/27 11:28:00;;;;;;;3.30;2.85;;;19.60;43.40;;;;;;5014700;28;93242;-71
2022/04/27 11:30:29;;;;;;;5.90;2.90;;;19.50;42.20;;;;;;5013636;28;92955;-71
2022/04/27 11:32:57;;;;;;;6.38;3.72;;;19.30;44.20;;;;;;5013638;28;92884;-71
2022/04/27 11:35:25;;;;;;;3.15;2.55;;;19.40;43.40;;;;;;5015366;28;92074;-71
2022/04/27 11:37:53;;;;;;;4.95;3.03;;;19.30;42.20;;;;;;5018167;28;93178;-71
2022/04/27 11:40:27;;;;;;;3.78;2.50;;;19.10;43.40;;;;;;5050844;27;95645;-71
2022/04/27 11:42:59;;;;;;;5.90;3.65;;;19.00;43.60;;;;;;5017368;28;94740;-71
2022/04/27 11:45:27;;;;;;;3.75;2.55;;;19.00;44.00;;;;;;5018819;28;92509;-71
2022/04/27 11:47:59;;;;;;;4.57;3.22;;;18.90;43.30;;;;;;5017957;28;93269;-71
2022/04/27 11:50:29;;;;;;;4.88;2.83;;;18.80;43.40;;;;;;5018329;28;92865;-71
2022/04/27 11:52:59;;;;;;;6.40;4.18;;;18.90;44.10;;;;;;5018325;28;92370;-71
2022/04/27 11:55:27;;;;;;;5.70;2.63;;;19.30;43.50;;;;;;5018473;28;92421;-71
2022/04/27 11:57:54;;;;;;;2.90;2.72;;;19.70;43.40;;;;;;5017118;28;111176;-71
2022/04/27 12:00:23;;;;;;;3.63;2.72;;;20.00;42.80;;;;;;5018499;28;92932;-71
2022/04/27 12:02:50;;;;;;;4.15;2.10;;;20.10;42.30;;;;;;5033486;27;92754;-71
2022/04/27 12:05:26;;;;;;;4.53;3.20;;;20.20;41.30;;;;;;5033628;28;92475;-71
2022/04/27 12:07:55;;;;;;;5.50;2.67;;;20.10;41.80;;;;;;5016710;28;95554;-71
2022/04/27 12:10:22;;;;;;;3.47;2.35;;;19.90;42.80;;;;;;5016131;28;97887;-71
2022/04/27 12:12:49;;;;;;;3.17;2.50;;;19.50;41.70;;;;;;5016423;28;92494;-71
2022/04/27 12:15:17;;;;;;;3.20;2.90;;;19.50;42.50;;;;;;5033513;28;92528;-71
2022/04/27 12:17:56;;;;;;;5.80;4.00;;;19.50;42.50;;;;;;5016669;28;92510;-71
2022/04/27 12:20:41;;;;;;;2.83;2.55;;;19.70;43.80;;;;;;5017735;28;93161;-71
2022/04/27 12:23:20;;;;;;;8.48;2.67;;;19.60;45.00;;;;;;5017870;28;92433;-71
2022/04/27 12:25:57;;;;;;;3.55;2.78;;;19.20;44.20;;;;;;5017959;28;91755;-71
2022/04/27 12:28:26;;;;;;;5.70;2.58;;;18.90;44.30;;;;;;5016423;28;93298;-71
2022/04/27 12:30:54;;;;;;;4.50;2.60;;;18.80;45.00;;;;;;5017160;28;93118;-71
2022/04/27 12:33:27;;;;;;;7.13;2.60;;;18.60;46.70;;;;;;5016707;28;94833;-71
2022/04/27 12:39:06;;;;;;;5.32;3.08;;;18.30;49.40;;;;;;5017791;28;93298;-70
2022/04/27 12:41:44;;;;;;;5.10;2.60;;;18.60;48.80;;;;;;5017402;28;92921;-71
2022/04/27 12:44:19;;;;;;;5.47;3.47;;;18.50;49.10;;;;;;5017717;28;92411;-71
2022/04/27 12:46:59;;;;;;;8.40;2.90;;;18.60;50.10;;;;;;5015968;28;92463;-71
2022/04/27 12:49:26;;;;;;;7.07;2.75;;;18.60;49.70;;;;;;5017544;28;94426;-71
2022/04/27 12:51:54;;;;;;;8.32;3.60;;;18.60;49.80;;;;;;5016172;28;95828;-71
2022/04/27 12:54:36;;;;;;;5.82;2.92;;;18.50;50.40;;;;;;5032672;28;93802;-71
2022/04/27 12:57:03;;;;;;;7.15;3.13;;;18.70;49.30;;;;;;5032473;28;93016;-71
2022/04/27 12:59:31;;;;;;;8.10;3.92;;;18.70;49.80;;;;;;4998146;28;96599;-71
2022/04/27 13:02:00;;;;;;;7.32;3.22;;;18.40;49.80;;;;;;5016942;28;95242;-71
2022/04/27 13:04:28;;;;;;;10.18;3.83;;;18.70;51.10;;;;;;5017298;28;92380;-71
2022/04/27 13:06:55;;;;;;;5.65;3.50;;;18.90;51.20;;;;;;5015798;28;92492;-71
2022/04/27 13:12:09;;;;;;;5.78;3.40;;;19.20;48.30;;;;;;5015163;28;95466;-71
2022/04/27 13:14:38;;;;;;;6.20;3.25;;;18.80;49.20;;;;;;5015970;28;92750;-71
2022/04/27 13:17:05;;;;;;;7.90;3.13;;;18.70;49.90;;;;;;5032666;28;91804;-71
2022/04/27 13:19:32;;;;;;;8.20;4.40;;;18.90;49.70;;;;;;5031921;28;93149;-71
2022/04/27 13:21:59;;;;;;;7.05;2.67;;;19.00;49.20;;;;;;5016637;28;93240;-71
2022/04/27 13:24:27;;;;;;;12.00;3.80;;;18.80;48.60;;;;;;5031358;28;94829;-71
2022/04/27 13:27:13;;;;;;;3.85;2.40;;;18.40;50.50;;;;;;5029674;28;92415;-71
2022/04/27 13:29:39;;;;;;;8.57;4.10;;;18.10;49.80;;;;;;4998805;28;95718;-71
2022/04/27 13:32:17;;;;;;;7.28;3.05;;;17.90;50.40;;;;;;5015088;28;95388;-71
2022/04/27 13:34:43;;;;;;;8.02;3.65;;;18.20;50.40;;;;;;5017200;28;92345;-71